Plum Island, Massachusetts
Current Conditions -  °F | °C
As of 8:54 PM on Sunday 23 Nov 2014 (Local Time) from KLWM Reporting Station
Overcast Overcast  
Wind Chill: 51°   Ceiling: 11000
Heat Index: 51°   Visibility: 10mi
Dew Point: 37°   Wind: 3mph
Humidity: 59%   Direction: 160°SSE
Pressure: 30.13"   Gusts: NA
Location:  42.7802°N, 70.8638°W
Report Text: KLWM 240154Z 16003KT 10SM OVC110 11/03 A3013 RMK AO2 SLP204 T01060028
Loading
Personal Weather Stations






























Interactive Weather Map New forecast layout! Learn more

10-Day Weather Forecast

Advertisements
Track Severe Weather on mobile